sensor_id;sensor_type;location;lat;lon;timestamp;P1;durP1;ratioP1;P2;durP2;ratioP2
17201;SDS011;8717;53.588;10.176;2023-07-16T00:01:14;2.55;;;1.23;;
17201;SDS011;8717;53.588;10.176;2023-07-16T00:03:41;2.60;;;1.50;;
17201;SDS011;8717;53.588;10.176;2023-07-16T00:06:08;1.88;;;1.30;;
17201;SDS011;8717;53.588;10.176;2023-07-16T00:08:36;2.47;;;1.23;;
17201;SDS011;8717;53.588;10.176;2023-07-16T00:11:03;3.05;;;1.05;;
17201;SDS011;8717;53.588;10.176;2023-07-16T00:13:29;2.55;;;1.30;;
17201;SDS011;8717;53.588;10.176;2023-07-16T00:15:56;2.75;;;1.40;;
17201;SDS011;8717;53.588;10.176;2023-07-16T00:18:23;1.80;;;1.40;;
17201;SDS011;8717;53.588;10.176;2023-07-16T00:20:50;2.05;;;1.30;;
17201;SDS011;8717;53.588;10.176;2023-07-16T00:23:16;3.00;;;1.35;;
17201;SDS011;8717;53.588;10.176;2023-07-16T00:25:44;3.42;;;1.30;;
17201;SDS011;8717;53.588;10.176;2023-07-16T00:28:11;2.85;;;1.20;;
17201;SDS011;8717;53.588;10.176;2023-07-16T00:30:38;2.75;;;1.50;;
17201;SDS011;8717;53.588;10.176;2023-07-16T00:33:06;2.53;;;1.30;;
17201;SDS011;8717;53.588;10.176;2023-07-16T00:35:33;3.17;;;1.25;;
17201;SDS011;8717;53.588;10.176;2023-07-16T00:37:59;2.75;;;1.45;;
17201;SDS011;8717;53.588;10.176;2023-07-16T00:40:26;2.78;;;1.40;;
17201;SDS011;8717;53.588;10.176;2023-07-16T00:42:54;2.88;;;1.60;;
17201;SDS011;8717;53.588;10.176;2023-07-16T00:45:21;2.88;;;1.42;;
17201;SDS011;8717;53.588;10.176;2023-07-16T00:47:48;3.65;;;1.83;;
17201;SDS011;8717;53.588;10.176;2023-07-16T00:50:16;3.35;;;1.77;;
17201;SDS011;8717;53.588;10.176;2023-07-16T00:52:43;4.20;;;1.83;;
17201;SDS011;8717;53.588;10.176;2023-07-16T00:55:10;2.45;;;1.50;;
17201;SDS011;8717;53.588;10.176;2023-07-16T00:57:37;3.47;;;1.65;;
17201;SDS011;8717;53.588;10.176;2023-07-16T01:00:06;2.95;;;1.65;;
17201;SDS011;8717;53.588;10.176;2023-07-16T01:02:34;2.88;;;1.80;;
17201;SDS011;8717;53.588;10.176;2023-07-16T01:05:01;3.22;;;1.67;;
17201;SDS011;8717;53.588;10.176;2023-07-16T01:07:29;2.70;;;1.60;;
17201;SDS011;8717;53.588;10.176;2023-07-16T01:09:57;4.75;;;2.08;;
17201;SDS011;8717;53.588;10.176;2023-07-16T01:12:24;3.03;;;1.60;;
17201;SDS011;8717;53.588;10.176;2023-07-16T01:14:53;3.70;;;1.40;;
17201;SDS011;8717;53.588;10.176;2023-07-16T01:17:23;2.33;;;1.42;;
17201;SDS011;8717;53.588;10.176;2023-07-16T01:19:51;2.50;;;1.50;;
17201;SDS011;8717;53.588;10.176;2023-07-16T01:25:23;2.33;;;1.20;;
17201;SDS011;8717;53.588;10.176;2023-07-16T01:28:11;1.80;;;1.42;;
17201;SDS011;8717;53.588;10.176;2023-07-16T01:30:50;2.63;;;1.30;;
17201;SDS011;8717;53.588;10.176;2023-07-16T01:33:19;3.20;;;1.70;;
17201;SDS011;8717;53.588;10.176;2023-07-16T01:35:47;2.78;;;1.30;;
17201;SDS011;8717;53.588;10.176;2023-07-16T01:38:16;3.13;;;1.52;;
17201;SDS011;8717;53.588;10.176;2023-07-16T01:40:46;3.45;;;1.40;;
17201;SDS011;8717;53.588;10.176;2023-07-16T01:43:12;1.85;;;1.15;;
17201;SDS011;8717;53.588;10.176;2023-07-16T01:45:39;1.95;;;1.33;;
17201;SDS011;8717;53.588;10.176;2023-07-16T01:48:12;2.20;;;1.30;;
17201;SDS011;8717;53.588;10.176;2023-07-16T01:50:47;3.72;;;1.27;;
17201;SDS011;8717;53.588;10.176;2023-07-16T01:53:14;2.22;;;1.40;;
17201;SDS011;8717;53.588;10.176;2023-07-16T01:55:41;3.05;;;1.40;;
17201;SDS011;8717;53.588;10.176;2023-07-16T01:58:08;2.30;;;1.55;;
17201;SDS011;8717;53.588;10.176;2023-07-16T02:00:36;2.13;;;1.40;;
17201;SDS011;8717;53.588;10.176;2023-07-16T02:03:03;2.20;;;1.33;;
17201;SDS011;8717;53.588;10.176;2023-07-16T02:05:32;1.95;;;1.33;;
17201;SDS011;8717;53.588;10.176;2023-07-16T02:07:59;3.58;;;1.20;;
17201;SDS011;8717;53.588;10.176;2023-07-16T02:10:26;3.17;;;1.27;;
17201;SDS011;8717;53.588;10.176;2023-07-16T02:12:53;2.38;;;1.48;;
17201;SDS011;8717;53.588;10.176;2023-07-16T02:15:20;4.25;;;1.48;;
17201;SDS011;8717;53.588;10.176;2023-07-16T02:17:47;2.65;;;1.40;;
17201;SDS011;8717;53.588;10.176;2023-07-16T02:20:15;2.92;;;1.60;;
17201;SDS011;8717;53.588;10.176;2023-07-16T02:22:43;2.47;;;1.35;;
17201;SDS011;8717;53.588;10.176;2023-07-16T02:25:11;2.30;;;1.33;;
17201;SDS011;8717;53.588;10.176;2023-07-16T02:27:38;2.70;;;1.55;;
17201;SDS011;8717;53.588;10.176;2023-07-16T02:30:05;2.40;;;1.50;;
17201;SDS011;8717;53.588;10.176;2023-07-16T02:32:33;3.38;;;1.50;;
17201;SDS011;8717;53.588;10.176;2023-07-16T02:35:00;1.70;;;1.35;;
17201;SDS011;8717;53.588;10.176;2023-07-16T02:37:28;3.05;;;1.60;;
17201;SDS011;8717;53.588;10.176;2023-07-16T02:39:58;1.98;;;1.30;;
17201;SDS011;8717;53.588;10.176;2023-07-16T02:42:25;2.42;;;1.30;;
17201;SDS011;8717;53.588;10.176;2023-07-16T02:44:52;2.85;;;1.50;;
17201;SDS011;8717;53.588;10.176;2023-07-16T02:47:19;2.17;;;1.33;;
17201;SDS011;8717;53.588;10.176;2023-07-16T02:49:50;2.22;;;1.48;;
17201;SDS011;8717;53.588;10.176;2023-07-16T02:52:17;1.80;;;1.23;;
17201;SDS011;8717;53.588;10.176;2023-07-16T02:54:44;1.73;;;1.15;;
17201;SDS011;8717;53.588;10.176;2023-07-16T02:57:12;4.03;;;1.50;;
17201;SDS011;8717;53.588;10.176;2023-07-16T02:59:38;2.05;;;1.33;;
17201;SDS011;8717;53.588;10.176;2023-07-16T03:02:05;4.43;;;1.58;;
17201;SDS011;8717;53.588;10.176;2023-07-16T03:04:32;2.95;;;1.63;;
17201;SDS011;8717;53.588;10.176;2023-07-16T03:06:58;2.45;;;1.50;;
17201;SDS011;8717;53.588;10.176;2023-07-16T03:09:25;1.88;;;1.38;;
17201;SDS011;8717;53.588;10.176;2023-07-16T03:11:52;3.63;;;1.55;;
17201;SDS011;8717;53.588;10.176;2023-07-16T03:14:20;1.77;;;1.25;;
17201;SDS011;8717;53.588;10.176;2023-07-16T03:16:47;2.45;;;1.50;;
17201;SDS011;8717;53.588;10.176;2023-07-16T03:19:13;2.30;;;1.45;;
17201;SDS011;8717;53.588;10.176;2023-07-16T03:21:40;1.58;;;1.30;;
17201;SDS011;8717;53.588;10.176;2023-07-16T03:24:09;3.72;;;1.60;;
17201;SDS011;8717;53.588;10.176;2023-07-16T03:26:36;2.65;;;1.30;;
17201;SDS011;8717;53.588;10.176;2023-07-16T03:29:03;3.25;;;1.60;;
17201;SDS011;8717;53.588;10.176;2023-07-16T03:31:32;3.25;;;1.33;;
17201;SDS011;8717;53.588;10.176;2023-07-16T03:33:59;3.85;;;1.70;;
17201;SDS011;8717;53.588;10.176;2023-07-16T03:36:29;4.07;;;1.70;;
17201;SDS011;8717;53.588;10.176;2023-07-16T03:38:56;3.00;;;1.50;;
17201;SDS011;8717;53.588;10.176;2023-07-16T03:41:23;3.28;;;1.70;;
17201;SDS011;8717;53.588;10.176;2023-07-16T03:43:51;3.80;;;1.60;;
17201;SDS011;8717;53.588;10.176;2023-07-16T03:46:19;3.53;;;1.40;;
17201;SDS011;8717;53.588;10.176;2023-07-16T03:48:48;2.70;;;1.65;;
17201;SDS011;8717;53.588;10.176;2023-07-16T03:51:15;2.95;;;1.67;;
17201;SDS011;8717;53.588;10.176;2023-07-16T03:53:43;2.75;;;1.30;;
17201;SDS011;8717;53.588;10.176;2023-07-16T03:56:10;3.33;;;1.48;;
17201;SDS011;8717;53.588;10.176;2023-07-16T03:58:37;3.05;;;1.75;;
17201;SDS011;8717;53.588;10.176;2023-07-16T04:01:05;3.78;;;1.60;;
17201;SDS011;8717;53.588;10.176;2023-07-16T04:03:31;3.45;;;1.67;;
17201;SDS011;8717;53.588;10.176;2023-07-16T04:06:02;2.33;;;1.35;;
17201;SDS011;8717;53.588;10.176;2023-07-16T04:08:29;4.18;;;1.60;;
17201;SDS011;8717;53.588;10.176;2023-07-16T04:10:56;2.40;;;1.40;;
17201;SDS011;8717;53.588;10.176;2023-07-16T04:13:23;2.45;;;1.48;;
17201;SDS011;8717;53.588;10.176;2023-07-16T04:15:50;2.38;;;1.55;;
17201;SDS011;8717;53.588;10.176;2023-07-16T04:18:18;3.13;;;1.83;;
17201;SDS011;8717;53.588;10.176;2023-07-16T04:20:45;3.85;;;1.73;;
17201;SDS011;8717;53.588;10.176;2023-07-16T04:23:13;2.42;;;1.70;;
17201;SDS011;8717;53.588;10.176;2023-07-16T04:25:41;4.55;;;1.65;;
17201;SDS011;8717;53.588;10.176;2023-07-16T04:28:07;2.40;;;1.70;;
17201;SDS011;8717;53.588;10.176;2023-07-16T04:30:35;3.15;;;1.70;;
17201;SDS011;8717;53.588;10.176;2023-07-16T04:33:03;3.35;;;1.60;;
17201;SDS011;8717;53.588;10.176;2023-07-16T04:35:30;2.80;;;1.50;;
17201;SDS011;8717;53.588;10.176;2023-07-16T04:37:57;2.05;;;1.70;;
17201;SDS011;8717;53.588;10.176;2023-07-16T04:40:25;4.18;;;1.50;;
17201;SDS011;8717;53.588;10.176;2023-07-16T04:42:51;3.53;;;1.70;;
17201;SDS011;8717;53.588;10.176;2023-07-16T04:45:18;2.95;;;2.08;;
17201;SDS011;8717;53.588;10.176;2023-07-16T04:47:45;2.08;;;1.83;;
17201;SDS011;8717;53.588;10.176;2023-07-16T04:50:12;3.87;;;1.70;;
17201;SDS011;8717;53.588;10.176;2023-07-16T04:52:38;3.97;;;1.75;;
17201;SDS011;8717;53.588;10.176;2023-07-16T04:55:05;2.70;;;1.48;;
17201;SDS011;8717;53.588;10.176;2023-07-16T04:57:34;2.63;;;1.60;;
17201;SDS011;8717;53.588;10.176;2023-07-16T05:00:00;2.42;;;1.60;;
17201;SDS011;8717;53.588;10.176;2023-07-16T05:02:28;3.28;;;1.80;;
17201;SDS011;8717;53.588;10.176;2023-07-16T05:04:55;2.72;;;1.55;;
17201;SDS011;8717;53.588;10.176;2023-07-16T05:07:21;3.30;;;1.65;;
17201;SDS011;8717;53.588;10.176;2023-07-16T05:09:48;4.55;;;1.92;;
17201;SDS011;8717;53.588;10.176;2023-07-16T05:12:15;3.10;;;1.60;;
17201;SDS011;8717;53.588;10.176;2023-07-16T05:14:47;2.97;;;1.97;;
17201;SDS011;8717;53.588;10.176;2023-07-16T05:17:14;3.53;;;1.63;;
17201;SDS011;8717;53.588;10.176;2023-07-16T05:19:41;4.43;;;2.10;;
17201;SDS011;8717;53.588;10.176;2023-07-16T05:22:08;3.57;;;1.73;;
17201;SDS011;8717;53.588;10.176;2023-07-16T05:24:34;3.27;;;1.60;;
17201;SDS011;8717;53.588;10.176;2023-07-16T05:27:01;2.20;;;1.80;;
17201;SDS011;8717;53.588;10.176;2023-07-16T05:29:28;4.93;;;1.70;;
17201;SDS011;8717;53.588;10.176;2023-07-16T05:31:56;3.00;;;1.70;;
17201;SDS011;8717;53.588;10.176;2023-07-16T05:34:23;3.43;;;2.03;;
17201;SDS011;8717;53.588;10.176;2023-07-16T05:36:52;5.82;;;2.15;;
17201;SDS011;8717;53.588;10.176;2023-07-16T05:39:20;3.10;;;1.67;;
17201;SDS011;8717;53.588;10.176;2023-07-16T05:41:46;5.43;;;2.00;;
17201;SDS011;8717;53.588;10.176;2023-07-16T05:44:13;3.42;;;1.67;;
17201;SDS011;8717;53.588;10.176;2023-07-16T05:46:40;6.22;;;2.03;;
17201;SDS011;8717;53.588;10.176;2023-07-16T05:49:08;3.70;;;1.75;;
17201;SDS011;8717;53.588;10.176;2023-07-16T05:51:35;3.85;;;1.67;;
17201;SDS011;8717;53.588;10.176;2023-07-16T05:54:02;2.67;;;1.40;;
17201;SDS011;8717;53.588;10.176;2023-07-16T05:56:28;3.40;;;1.90;;
17201;SDS011;8717;53.588;10.176;2023-07-16T05:58:55;4.90;;;1.90;;
17201;SDS011;8717;53.588;10.176;2023-07-16T06:01:22;3.63;;;1.70;;
17201;SDS011;8717;53.588;10.176;2023-07-16T06:03:48;3.38;;;1.85;;
17201;SDS011;8717;53.588;10.176;2023-07-16T06:06:16;3.42;;;1.67;;
17201;SDS011;8717;53.588;10.176;2023-07-16T06:08:43;2.63;;;1.77;;
17201;SDS011;8717;53.588;10.176;2023-07-16T06:11:10;3.67;;;1.52;;
17201;SDS011;8717;53.588;10.176;2023-07-16T06:13:37;3.00;;;1.85;;
17201;SDS011;8717;53.588;10.176;2023-07-16T06:16:04;4.57;;;1.80;;
17201;SDS011;8717;53.588;10.176;2023-07-16T06:18:31;3.67;;;1.50;;
17201;SDS011;8717;53.588;10.176;2023-07-16T06:20:57;4.68;;;2.13;;
17201;SDS011;8717;53.588;10.176;2023-07-16T06:23:25;2.65;;;1.77;;
17201;SDS011;8717;53.588;10.176;2023-07-16T06:25:53;7.50;;;2.10;;
17201;SDS011;8717;53.588;10.176;2023-07-16T06:28:20;4.30;;;1.90;;
17201;SDS011;8717;53.588;10.176;2023-07-16T06:30:47;5.90;;;1.70;;
17201;SDS011;8717;53.588;10.176;2023-07-16T06:33:17;4.78;;;2.22;;
17201;SDS011;8717;53.588;10.176;2023-07-16T06:35:44;7.28;;;2.17;;
17201;SDS011;8717;53.588;10.176;2023-07-16T06:38:12;6.30;;;2.20;;
17201;SDS011;8717;53.588;10.176;2023-07-16T06:40:40;4.07;;;1.92;;
17201;SDS011;8717;53.588;10.176;2023-07-16T06:43:11;5.40;;;2.25;;
17201;SDS011;8717;53.588;10.176;2023-07-16T06:45:38;3.53;;;2.20;;
17201;SDS011;8717;53.588;10.176;2023-07-16T06:48:05;4.63;;;1.60;;
17201;SDS011;8717;53.588;10.176;2023-07-16T06:50:31;5.30;;;1.85;;
17201;SDS011;8717;53.588;10.176;2023-07-16T06:52:58;9.95;;;2.72;;
17201;SDS011;8717;53.588;10.176;2023-07-16T06:55:25;5.85;;;2.15;;
17201;SDS011;8717;53.588;10.176;2023-07-16T06:57:53;3.38;;;1.95;;
17201;SDS011;8717;53.588;10.176;2023-07-16T07:00:19;5.25;;;2.05;;
17201;SDS011;8717;53.588;10.176;2023-07-16T07:02:46;3.97;;;2.17;;
17201;SDS011;8717;53.588;10.176;2023-07-16T07:05:13;5.63;;;2.42;;
17201;SDS011;8717;53.588;10.176;2023-07-16T07:07:40;5.43;;;2.20;;
17201;SDS011;8717;53.588;10.176;2023-07-16T07:10:07;6.25;;;2.67;;
17201;SDS011;8717;53.588;10.176;2023-07-16T07:12:34;6.75;;;2.40;;
17201;SDS011;8717;53.588;10.176;2023-07-16T07:15:04;6.25;;;2.35;;
17201;SDS011;8717;53.588;10.176;2023-07-16T07:17:32;7.25;;;2.33;;
17201;SDS011;8717;53.588;10.176;2023-07-16T07:19:58;6.20;;;2.30;;
17201;SDS011;8717;53.588;10.176;2023-07-16T07:22:25;3.67;;;2.00;;
17201;SDS011;8717;53.588;10.176;2023-07-16T07:24:52;7.18;;;2.20;;
17201;SDS011;8717;53.588;10.176;2023-07-16T07:27:19;4.57;;;2.28;;
17201;SDS011;8717;53.588;10.176;2023-07-16T07:29:45;6.32;;;2.78;;
17201;SDS011;8717;53.588;10.176;2023-07-16T07:32:18;3.63;;;2.17;;
17201;SDS011;8717;53.588;10.176;2023-07-16T07:34:45;5.20;;;2.22;;
17201;SDS011;8717;53.588;10.176;2023-07-16T07:37:11;4.45;;;2.30;;
17201;SDS011;8717;53.588;10.176;2023-07-16T07:39:38;4.15;;;2.33;;
17201;SDS011;8717;53.588;10.176;2023-07-16T07:42:05;5.90;;;2.63;;
17201;SDS011;8717;53.588;10.176;2023-07-16T07:44:32;4.47;;;2.28;;
17201;SDS011;8717;53.588;10.176;2023-07-16T07:46:59;3.58;;;2.00;;
17201;SDS011;8717;53.588;10.176;2023-07-16T07:49:27;4.10;;;2.00;;
17201;SDS011;8717;53.588;10.176;2023-07-16T07:51:53;5.32;;;2.22;;
17201;SDS011;8717;53.588;10.176;2023-07-16T07:54:20;4.72;;;2.28;;
17201;SDS011;8717;53.588;10.176;2023-07-16T07:56:47;4.57;;;2.30;;
17201;SDS011;8717;53.588;10.176;2023-07-16T07:59:13;3.28;;;1.80;;
17201;SDS011;8717;53.588;10.176;2023-07-16T08:01:40;4.88;;;1.92;;
17201;SDS011;8717;53.588;10.176;2023-07-16T08:04:07;4.60;;;2.00;;
17201;SDS011;8717;53.588;10.176;2023-07-16T08:06:35;4.95;;;2.45;;
17201;SDS011;8717;53.588;10.176;2023-07-16T08:09:01;3.35;;;2.08;;
17201;SDS011;8717;53.588;10.176;2023-07-16T08:11:28;2.88;;;1.60;;
17201;SDS011;8717;53.588;10.176;2023-07-16T08:13:55;4.72;;;1.98;;
17201;SDS011;8717;53.588;10.176;2023-07-16T08:16:21;4.05;;;2.17;;
17201;SDS011;8717;53.588;10.176;2023-07-16T08:18:48;5.53;;;1.80;;
17201;SDS011;8717;53.588;10.176;2023-07-16T08:21:16;4.93;;;1.70;;
17201;SDS011;8717;53.588;10.176;2023-07-16T08:23:46;7.75;;;2.33;;
17201;SDS011;8717;53.588;10.176;2023-07-16T08:26:13;6.50;;;2.05;;
17201;SDS011;8717;53.588;10.176;2023-07-16T08:28:39;4.80;;;2.17;;
17201;SDS011;8717;53.588;10.176;2023-07-16T08:31:06;3.40;;;1.60;;
17201;SDS011;8717;53.588;10.176;2023-07-16T08:33:33;3.78;;;1.88;;
17201;SDS011;8717;53.588;10.176;2023-07-16T08:35:59;2.63;;;1.70;;
17201;SDS011;8717;53.588;10.176;2023-07-16T08:38:26;4.63;;;2.22;;
17201;SDS011;8717;53.588;10.176;2023-07-16T08:40:54;5.53;;;1.92;;
17201;SDS011;8717;53.588;10.176;2023-07-16T08:43:21;5.03;;;2.13;;
17201;SDS011;8717;53.588;10.176;2023-07-16T08:45:48;5.22;;;2.17;;
17201;SDS011;8717;53.588;10.176;2023-07-16T08:48:15;5.78;;;2.10;;
17201;SDS011;8717;53.588;10.176;2023-07-16T08:50:43;4.78;;;2.13;;
17201;SDS011;8717;53.588;10.176;2023-07-16T08:53:13;4.57;;;2.20;;
17201;SDS011;8717;53.588;10.176;2023-07-16T08:55:41;7.13;;;2.22;;
17201;SDS011;8717;53.588;10.176;2023-07-16T08:58:11;5.22;;;2.22;;
17201;SDS011;8717;53.588;10.176;2023-07-16T09:00:39;4.60;;;2.10;;
17201;SDS011;8717;53.588;10.176;2023-07-16T09:03:06;2.67;;;1.90;;
17201;SDS011;8717;53.588;10.176;2023-07-16T09:05:33;6.15;;;2.00;;
17201;SDS011;8717;53.588;10.176;2023-07-16T09:08:01;5.40;;;2.10;;
17201;SDS011;8717;53.588;10.176;2023-07-16T09:10:29;4.05;;;1.90;;
17201;SDS011;8717;53.588;10.176;2023-07-16T09:12:57;4.75;;;2.28;;
17201;SDS011;8717;53.588;10.176;2023-07-16T09:15:27;4.50;;;1.95;;
17201;SDS011;8717;53.588;10.176;2023-07-16T09:17:55;4.43;;;2.30;;
17201;SDS011;8717;53.588;10.176;2023-07-16T09:20:22;2.92;;;2.40;;
17201;SDS011;8717;53.588;10.176;2023-07-16T09:22:49;3.00;;;2.20;;
17201;SDS011;8717;53.588;10.176;2023-07-16T09:25:19;5.22;;;2.72;;
17201;SDS011;8717;53.588;10.176;2023-07-16T09:27:48;4.70;;;2.78;;
17201;SDS011;8717;53.588;10.176;2023-07-16T09:30:15;4.40;;;2.53;;
17201;SDS011;8717;53.588;10.176;2023-07-16T09:32:44;4.15;;;2.70;;
17201;SDS011;8717;53.588;10.176;2023-07-16T09:35:14;4.80;;;3.10;;
17201;SDS011;8717;53.588;10.176;2023-07-16T09:37:42;5.70;;;3.00;;
17201;SDS011;8717;53.588;10.176;2023-07-16T09:40:10;4.32;;;2.60;;
17201;SDS011;8717;53.588;10.176;2023-07-16T09:42:38;5.72;;;2.70;;
17201;SDS011;8717;53.588;10.176;2023-07-16T09:45:06;4.95;;;2.80;;
17201;SDS011;8717;53.588;10.176;2023-07-16T09:47:34;5.50;;;3.05;;
17201;SDS011;8717;53.588;10.176;2023-07-16T09:50:03;5.40;;;3.05;;
17201;SDS011;8717;53.588;10.176;2023-07-16T09:52:31;6.00;;;3.03;;
17201;SDS011;8717;53.588;10.176;2023-07-16T09:55:00;5.68;;;2.60;;
17201;SDS011;8717;53.588;10.176;2023-07-16T09:57:36;3.95;;;2.80;;
17201;SDS011;8717;53.588;10.176;2023-07-16T10:00:05;4.13;;;2.63;;
17201;SDS011;8717;53.588;10.176;2023-07-16T10:02:38;3.88;;;2.40;;
17201;SDS011;8717;53.588;10.176;2023-07-16T10:05:13;5.65;;;3.10;;
17201;SDS011;8717;53.588;10.176;2023-07-16T10:07:40;6.03;;;2.97;;
17201;SDS011;8717;53.588;10.176;2023-07-16T10:10:09;7.13;;;2.85;;
17201;SDS011;8717;53.588;10.176;2023-07-16T10:12:37;4.93;;;2.70;;
17201;SDS011;8717;53.588;10.176;2023-07-16T10:15:04;5.18;;;2.67;;
17201;SDS011;8717;53.588;10.176;2023-07-16T10:17:32;6.15;;;3.55;;
17201;SDS011;8717;53.588;10.176;2023-07-16T10:20:00;4.85;;;2.70;;
17201;SDS011;8717;53.588;10.176;2023-07-16T10:22:35;4.63;;;2.78;;
17201;SDS011;8717;53.588;10.176;2023-07-16T10:25:03;4.03;;;2.85;;
17201;SDS011;8717;53.588;10.176;2023-07-16T10:27:32;8.60;;;3.22;;
17201;SDS011;8717;53.588;10.176;2023-07-16T10:30:00;5.45;;;2.65;;
17201;SDS011;8717;53.588;10.176;2023-07-16T10:32:29;5.30;;;3.08;;
17201;SDS011;8717;53.588;10.176;2023-07-16T10:34:56;7.35;;;2.97;;
17201;SDS011;8717;53.588;10.176;2023-07-16T10:37:24;7.03;;;2.72;;
17201;SDS011;8717;53.588;10.176;2023-07-16T10:39:52;5.10;;;2.92;;
17201;SDS011;8717;53.588;10.176;2023-07-16T10:42:20;4.93;;;2.97;;
17201;SDS011;8717;53.588;10.176;2023-07-16T10:44:49;6.32;;;2.95;;
17201;SDS011;8717;53.588;10.176;2023-07-16T10:47:22;4.60;;;2.85;;
17201;SDS011;8717;53.588;10.176;2023-07-16T10:49:49;4.20;;;2.80;;
17201;SDS011;8717;53.588;10.176;2023-07-16T10:52:19;4.60;;;3.05;;
17201;SDS011;8717;53.588;10.176;2023-07-16T10:54:46;5.30;;;3.10;;
17201;SDS011;8717;53.588;10.176;2023-07-16T10:57:15;5.95;;;3.22;;
17201;SDS011;8717;53.588;10.176;2023-07-16T10:59:44;5.85;;;3.28;;
17201;SDS011;8717;53.588;10.176;2023-07-16T11:02:14;5.80;;;2.97;;
17201;SDS011;8717;53.588;10.176;2023-07-16T11:04:42;4.60;;;2.78;;
17201;SDS011;8717;53.588;10.176;2023-07-16T11:07:10;5.00;;;3.10;;
17201;SDS011;8717;53.588;10.176;2023-07-16T11:09:41;5.85;;;3.17;;
17201;SDS011;8717;53.588;10.176;2023-07-16T11:12:09;4.43;;;3.22;;
17201;SDS011;8717;53.588;10.176;2023-07-16T11:14:38;4.72;;;2.90;;
17201;SDS011;8717;53.588;10.176;2023-07-16T11:17:06;4.90;;;3.05;;
17201;SDS011;8717;53.588;10.176;2023-07-16T11:19:34;4.68;;;2.90;;
17201;SDS011;8717;53.588;10.176;2023-07-16T11:22:02;8.40;;;3.38;;
17201;SDS011;8717;53.588;10.176;2023-07-16T11:24:36;4.78;;;2.50;;
17201;SDS011;8717;53.588;10.176;2023-07-16T11:27:04;4.72;;;3.13;;
17201;SDS011;8717;53.588;10.176;2023-07-16T11:29:35;4.70;;;2.63;;
17201;SDS011;8717;53.588;10.176;2023-07-16T11:32:03;5.30;;;2.80;;
17201;SDS011;8717;53.588;10.176;2023-07-16T11:34:31;3.92;;;2.92;;
17201;SDS011;8717;53.588;10.176;2023-07-16T11:37:06;5.65;;;2.85;;
17201;SDS011;8717;53.588;10.176;2023-07-16T11:39:34;5.80;;;2.75;;
17201;SDS011;8717;53.588;10.176;2023-07-16T11:42:01;5.35;;;2.88;;
17201;SDS011;8717;53.588;10.176;2023-07-16T11:44:32;3.85;;;2.60;;
17201;SDS011;8717;53.588;10.176;2023-07-16T11:46:59;4.68;;;3.10;;
17201;SDS011;8717;53.588;10.176;2023-07-16T11:49:28;6.13;;;3.15;;
17201;SDS011;8717;53.588;10.176;2023-07-16T11:51:55;5.43;;;2.45;;
17201;SDS011;8717;53.588;10.176;2023-07-16T11:54:22;6.40;;;3.20;;
17201;SDS011;8717;53.588;10.176;2023-07-16T11:56:49;4.15;;;2.70;;
17201;SDS011;8717;53.588;10.176;2023-07-16T11:59:15;5.53;;;2.60;;
17201;SDS011;8717;53.588;10.176;2023-07-16T12:01:45;5.30;;;2.97;;
17201;SDS011;8717;53.588;10.176;2023-07-16T12:04:13;4.22;;;2.92;;
17201;SDS011;8717;53.588;10.176;2023-07-16T12:06:41;5.15;;;2.47;;
17201;SDS011;8717;53.588;10.176;2023-07-16T12:09:08;6.35;;;2.72;;
17201;SDS011;8717;53.588;10.176;2023-07-16T12:11:34;4.25;;;3.10;;
17201;SDS011;8717;53.588;10.176;2023-07-16T12:14:03;4.75;;;2.90;;
17201;SDS011;8717;53.588;10.176;2023-07-16T12:16:30;3.65;;;2.28;;
17201;SDS011;8717;53.588;10.176;2023-07-16T12:18:56;6.68;;;3.05;;
17201;SDS011;8717;53.588;10.176;2023-07-16T12:21:23;3.72;;;2.67;;
17201;SDS011;8717;53.588;10.176;2023-07-16T12:23:51;7.47;;;2.80;;
17201;SDS011;8717;53.588;10.176;2023-07-16T12:26:18;4.88;;;2.65;;
17201;SDS011;8717;53.588;10.176;2023-07-16T12:28:44;4.93;;;2.65;;
17201;SDS011;8717;53.588;10.176;2023-07-16T12:31:11;5.00;;;2.35;;
17201;SDS011;8717;53.588;10.176;2023-07-16T12:33:38;7.00;;;3.05;;
17201;SDS011;8717;53.588;10.176;2023-07-16T12:36:04;3.80;;;2.33;;
17201;SDS011;8717;53.588;10.176;2023-07-16T12:38:31;3.58;;;2.50;;
17201;SDS011;8717;53.588;10.176;2023-07-16T12:40:59;4.82;;;2.53;;
17201;SDS011;8717;53.588;10.176;2023-07-16T12:43:26;4.85;;;2.00;;
17201;SDS011;8717;53.588;10.176;2023-07-16T12:45:53;3.72;;;2.20;;
17201;SDS011;8717;53.588;10.176;2023-07-16T12:48:19;6.45;;;2.55;;
17201;SDS011;8717;53.588;10.176;2023-07-16T12:50:46;4.50;;;2.50;;
17201;SDS011;8717;53.588;10.176;2023-07-16T12:53:13;3.63;;;2.50;;
17201;SDS011;8717;53.588;10.176;2023-07-16T12:55:40;5.90;;;2.63;;
17201;SDS011;8717;53.588;10.176;2023-07-16T12:58:08;6.85;;;2.50;;
17201;SDS011;8717;53.588;10.176;2023-07-16T13:00:35;4.68;;;2.80;;
17201;SDS011;8717;53.588;10.176;2023-07-16T13:03:01;4.07;;;2.65;;
17201;SDS011;8717;53.588;10.176;2023-07-16T13:05:29;3.80;;;2.20;;
17201;SDS011;8717;53.588;10.176;2023-07-16T13:07:56;5.15;;;2.30;;
17201;SDS011;8717;53.588;10.176;2023-07-16T13:10:23;4.97;;;2.35;;
17201;SDS011;8717;53.588;10.176;2023-07-16T13:12:49;4.43;;;2.45;;
17201;SDS011;8717;53.588;10.176;2023-07-16T13:15:18;4.03;;;2.10;;
17201;SDS011;8717;53.588;10.176;2023-07-16T13:17:44;2.28;;;1.85;;
17201;SDS011;8717;53.588;10.176;2023-07-16T13:20:12;2.88;;;2.15;;
17201;SDS011;8717;53.588;10.176;2023-07-16T13:22:39;3.95;;;2.10;;
17201;SDS011;8717;53.588;10.176;2023-07-16T13:25:06;3.38;;;2.25;;
17201;SDS011;8717;53.588;10.176;2023-07-16T13:27:33;5.18;;;2.58;;
17201;SDS011;8717;53.588;10.176;2023-07-16T13:30:00;3.80;;;2.15;;
17201;SDS011;8717;53.588;10.176;2023-07-16T13:32:28;3.67;;;2.00;;
17201;SDS011;8717;53.588;10.176;2023-07-16T13:34:55;3.67;;;1.98;;
17201;SDS011;8717;53.588;10.176;2023-07-16T13:37:22;5.68;;;2.38;;
17201;SDS011;8717;53.588;10.176;2023-07-16T13:39:48;3.75;;;2.03;;
17201;SDS011;8717;53.588;10.176;2023-07-16T13:42:15;4.00;;;2.00;;
17201;SDS011;8717;53.588;10.176;2023-07-16T13:44:42;5.15;;;2.35;;
17201;SDS011;8717;53.588;10.176;2023-07-16T13:47:09;6.22;;;2.10;;
17201;SDS011;8717;53.588;10.176;2023-07-16T13:49:37;4.05;;;2.15;;
17201;SDS011;8717;53.588;10.176;2023-07-16T13:52:03;4.65;;;2.72;;
17201;SDS011;8717;53.588;10.176;2023-07-16T13:54:30;7.78;;;2.30;;
17201;SDS011;8717;53.588;10.176;2023-07-16T13:56:57;3.20;;;2.13;;
17201;SDS011;8717;53.588;10.176;2023-07-16T13:59:24;3.28;;;2.35;;
17201;SDS011;8717;53.588;10.176;2023-07-16T14:01:58;4.95;;;2.25;;
17201;SDS011;8717;53.588;10.176;2023-07-16T14:04:26;5.03;;;2.28;;
17201;SDS011;8717;53.588;10.176;2023-07-16T14:06:54;3.72;;;2.22;;
17201;SDS011;8717;53.588;10.176;2023-07-16T14:09:21;3.63;;;2.50;;
17201;SDS011;8717;53.588;10.176;2023-07-16T14:11:48;4.45;;;2.60;;
17201;SDS011;8717;53.588;10.176;2023-07-16T14:14:15;5.68;;;2.45;;
17201;SDS011;8717;53.588;10.176;2023-07-16T14:16:42;3.70;;;1.98;;
17201;SDS011;8717;53.588;10.176;2023-07-16T14:19:09;3.50;;;2.10;;
17201;SDS011;8717;53.588;10.176;2023-07-16T14:21:37;5.93;;;2.60;;
17201;SDS011;8717;53.588;10.176;2023-07-16T14:24:05;3.50;;;2.17;;
17201;SDS011;8717;53.588;10.176;2023-07-16T14:26:32;4.13;;;2.20;;
17201;SDS011;8717;53.588;10.176;2023-07-16T14:28:59;4.43;;;2.70;;
17201;SDS011;8717;53.588;10.176;2023-07-16T14:31:26;4.60;;;2.10;;
17201;SDS011;8717;53.588;10.176;2023-07-16T14:33:53;4.07;;;2.35;;
17201;SDS011;8717;53.588;10.176;2023-07-16T14:36:19;3.97;;;2.67;;
17201;SDS011;8717;53.588;10.176;2023-07-16T14:38:47;2.95;;;2.00;;
17201;SDS011;8717;53.588;10.176;2023-07-16T14:41:15;4.75;;;2.33;;
17201;SDS011;8717;53.588;10.176;2023-07-16T14:43:41;4.20;;;2.45;;
17201;SDS011;8717;53.588;10.176;2023-07-16T14:46:10;6.47;;;2.38;;
17201;SDS011;8717;53.588;10.176;2023-07-16T14:48:40;2.50;;;2.00;;
17201;SDS011;8717;53.588;10.176;2023-07-16T14:51:08;3.67;;;2.60;;
17201;SDS011;8717;53.588;10.176;2023-07-16T14:53:34;2.92;;;2.22;;